Stephentown, NY (12168)

10:50 PM EDT on August 28, 2014 (GMT -0400)
Taborton Mountain | Change Station
CLOSE
Current Station
Personal Weather Station
Location: Averill Park, NY
Elevation: 1296 ft
Nearby Weather Stations

Elev 1296 ft 42.61 °N, 73.48 °W | Updated 56 seconds ago

Clear
Clear
52.5 °F
Feels Like 52.5 °F
N
0.9
Wind Variable Wind from South
Gusts 1.0 mph

Today
High -- | Low -- °F
--% Chance of Precip.
Yesterday
High -- | Low -- °F
Precip. -- in
6:14 AM 7:34 PM
Waxing Crescent, 11% visible
Pressure 29.99 in
Visibility 10.0 miles
Clouds Few 6000 ft
Dew Point 51 °F
Humidity 94%
Rainfall 0.00 in
Snow Depth Not available.
UV 0.0 out of 12
Pollen 9.10 out of 12
PM2.5 Good
Flu Activity Not available.
METAR KPSF 290154Z AUTO 30005KT 10SM FEW060 14/11 A3004 RMK AO2 SLP154 T01440111

More Conditions Fewer Conditions

Pressure 29.99 in
Visibility 10.0 miles
Clouds Few 6000 ft
Dew Point 51 °F
Humidity 94%
Rainfall 0.00 in
Snow Depth Not available.
UV 0.0 out of 12
Pollen 9.10 out of 12
PM2.5 Good
Flu Activity Not available.
METAR KPSF 290154Z AUTO 30005KT 10SM FEW060 14/11 A3004 RMK AO2 SLP154 T01440111

More Conditions Fewer Conditions

10-Day Weather Forecast

Almanac

Astronomy

Aug. 28, 2014 Rise Set
Actual Time 6:14 AM EDT 7:34 PM EDT
Civil Twilight 5:45 AM EDT 8:03 PM EDT
Nautical Twilight 5:09 AM EDT 8:39 PM EDT
Astronomical Twilight 4:32 AM EDT 9:16 PM EDT
Moon 9:08 AM EDT (8/28) 8:52 PM EDT (8/28)
Length of Visible Light 14h 18m
Length of Day
13h 20m
Tomorrow will be 2m 44s shorter.
Waxing Crescent, 11% of the Moon is Illuminated
Today
Waxing Crescent
Sep 2
First Quarter
Sep 8
Full
Sep 15
Last Quarter
Sep 24
New

Today's Extremes

State Highs State Lows

Community

WunderPhotos

Upload Photos

1,748,133 photos uploaded!

Nearby

Air Quality

  Air Quality AQ Index Pollutant
Yesterday Good
PM2.5
Yesterday Good
OZONE
Current Good
PM2.5
Thursday Good
OZONE
Thursday Good
PM2.5
Friday Good
OZONE
Friday Good
PM2.5

Snow Depth

Station Depth Elevation
No new snow has been reported.

Earthquake Activity

City Distance Mag. Time & Date
No recent earthquake activity has been reported nearby.
Minimum magnitude displayed is 2.5.

Coastal Water Temperatures

Place Temperature
No Stations Reporting

Nearby Weather Stations